createdAt,value
2018-12-25T00:01:40.923Z,8.03
2018-12-25T00:04:46.823Z,7.53
2018-12-25T00:07:52.696Z,7.10
2018-12-25T00:10:58.773Z,7.33
2018-12-25T00:14:06.177Z,7.07
2018-12-25T00:17:12.217Z,6.53
2018-12-25T00:20:18.104Z,6.20
2018-12-25T00:23:23.989Z,6.57
2018-12-25T00:26:29.845Z,5.87
2018-12-25T00:29:35.722Z,6.17
2018-12-25T00:32:41.775Z,6.77
2018-12-25T00:35:47.653Z,5.90
2018-12-25T00:38:53.590Z,5.97
2018-12-25T00:41:59.569Z,6.30
2018-12-25T00:45:05.587Z,6.30
2018-12-25T00:48:11.535Z,5.77
2018-12-25T00:51:17.408Z,5.53
2018-12-25T00:54:23.310Z,6.03
2018-12-25T00:57:29.193Z,6.03
2018-12-25T01:00:35.112Z,5.70
2018-12-25T01:03:40.999Z,7.27
2018-12-25T01:06:46.999Z,7.20
2018-12-25T01:09:52.845Z,6.70
2018-12-25T01:12:58.749Z,6.87
2018-12-25T01:16:07.010Z,6.40
2018-12-25T01:19:12.863Z,5.70
2018-12-25T01:22:18.764Z,5.60
2018-12-25T01:25:24.608Z,4.27
2018-12-25T01:28:30.670Z,3.90
2018-12-25T01:31:36.637Z,3.93
2018-12-25T01:34:42.506Z,4.40
2018-12-25T01:37:48.346Z,5.03
2018-12-25T01:40:54.241Z,5.23
2018-12-25T01:44:00.086Z,6.00
2018-12-25T01:47:05.982Z,5.43
2018-12-25T01:50:11.889Z,5.50
2018-12-25T01:53:17.830Z,5.03
2018-12-25T01:56:23.751Z,5.33
2018-12-25T01:59:29.667Z,5.27
2018-12-25T02:02:35.609Z,4.90
2018-12-25T02:05:44.509Z,6.57
2018-12-25T02:08:50.342Z,6.80
2018-12-25T02:11:56.275Z,6.57
2018-12-25T02:15:06.124Z,5.50
2018-12-25T02:18:12.046Z,5.20
2018-12-25T02:21:17.971Z,4.67
2018-12-25T02:24:23.757Z,4.80
2018-12-25T02:27:29.643Z,4.83
2018-12-25T02:30:35.508Z,4.93
2018-12-25T02:33:41.500Z,5.10
2018-12-25T02:36:47.348Z,4.70
2018-12-25T02:39:53.364Z,5.80
2018-12-25T02:42:59.361Z,4.47
2018-12-25T02:46:05.291Z,5.53
2018-12-25T02:49:11.153Z,4.50
2018-12-25T02:52:17.135Z,4.60
2018-12-25T02:55:22.953Z,4.67
2018-12-25T02:58:28.892Z,4.97
2018-12-25T03:01:34.860Z,4.27
2018-12-25T03:04:40.750Z,4.67
2018-12-25T03:07:46.669Z,4.43
2018-12-25T03:10:52.637Z,5.03
2018-12-25T03:13:58.472Z,5.00
2018-12-25T03:17:04.299Z,6.70
2018-12-25T03:20:10.242Z,5.07
2018-12-25T03:23:16.232Z,6.23
2018-12-25T03:26:22.200Z,7.10
2018-12-25T03:29:28.182Z,6.00
2018-12-25T03:32:34.076Z,5.87
2018-12-25T03:35:39.935Z,6.07
2018-12-25T03:38:45.829Z,6.37
2018-12-25T03:41:51.722Z,6.67
2018-12-25T03:44:57.780Z,6.10
2018-12-25T03:48:03.710Z,6.83
2018-12-25T03:51:09.759Z,6.33
2018-12-25T03:54:15.623Z,7.73
2018-12-25T03:57:21.484Z,7.43
2018-12-25T04:00:27.463Z,7.50
2018-12-25T04:03:33.431Z,7.50
2018-12-25T04:06:39.524Z,7.47
2018-12-25T04:09:45.324Z,7.47
2018-12-25T04:12:51.197Z,7.27
2018-12-25T04:15:57.020Z,6.47
2018-12-25T04:19:02.906Z,7.47
2018-12-25T04:22:08.770Z,6.23
2018-12-25T04:25:14.682Z,6.10
2018-12-25T04:28:20.637Z,5.70
2018-12-25T04:31:26.619Z,5.37
2018-12-25T04:34:32.536Z,5.43
2018-12-25T04:37:38.412Z,6.70
2018-12-25T04:40:44.285Z,6.87
2018-12-25T04:43:50.295Z,6.67
2018-12-25T04:46:56.199Z,6.57
2018-12-25T04:50:02.119Z,6.73
2018-12-25T04:53:08.037Z,6.77
2018-12-25T04:56:13.880Z,6.43
2018-12-25T04:59:19.742Z,6.33
2018-12-25T05:02:25.603Z,5.90
2018-12-25T05:05:31.577Z,5.30
2018-12-25T05:08:37.667Z,5.80
2018-12-25T05:11:43.581Z,5.87
2018-12-25T05:14:49.496Z,6.23
2018-12-25T05:17:55.462Z,6.10
2018-12-25T05:21:01.466Z,6.73
2018-12-25T05:24:07.356Z,6.93
2018-12-25T05:27:13.210Z,6.20
2018-12-25T05:30:19.071Z,6.43
2018-12-25T05:33:25.080Z,6.27
2018-12-25T05:36:31.219Z,6.10
2018-12-25T05:39:37.103Z,6.30
2018-12-25T05:42:42.965Z,6.77
2018-12-25T05:45:48.885Z,6.43
2018-12-25T05:48:54.862Z,6.27
2018-12-25T05:52:00.759Z,6.40
2018-12-25T05:55:06.749Z,6.20
2018-12-25T05:58:12.636Z,6.20
2018-12-25T06:01:18.442Z,5.87
2018-12-25T06:04:24.255Z,6.57
2018-12-25T06:07:30.220Z,6.37
2018-12-25T06:10:36.231Z,6.37
2018-12-25T06:13:43.188Z,6.40
2018-12-25T06:16:49.033Z,6.33
2018-12-25T06:19:54.856Z,6.33
2018-12-25T06:23:00.886Z,5.73
2018-12-25T06:26:06.936Z,6.43
2018-12-25T06:29:12.894Z,7.13
2018-12-25T06:32:18.712Z,5.60
2018-12-25T06:35:24.634Z,6.10
2018-12-25T06:38:30.563Z,6.23
2018-12-25T06:41:36.452Z,6.13
2018-12-25T06:44:42.353Z,5.60
2018-12-25T06:47:48.490Z,5.93
2018-12-25T06:50:54.375Z,4.93
2018-12-25T06:54:00.331Z,5.80
2018-12-25T06:57:06.348Z,5.67
2018-12-25T07:00:13.326Z,6.50
2018-12-25T07:03:19.355Z,6.83
2018-12-25T07:06:25.525Z,6.30
2018-12-25T07:09:31.416Z,7.00
2018-12-25T07:12:56.493Z,7.00
2018-12-25T07:16:02.335Z,6.53
2018-12-25T07:19:08.275Z,6.60
2018-12-25T07:22:14.299Z,6.43
2018-12-25T07:25:20.168Z,6.53
2018-12-25T07:28:26.029Z,8.50
2018-12-25T07:31:31.930Z,9.23
2018-12-25T07:34:37.970Z,14.70
2018-12-25T07:37:43.984Z,9.90
2018-12-25T07:40:49.952Z,9.50
2018-12-25T07:43:55.932Z,8.27
2018-12-25T07:47:01.806Z,8.77
2018-12-25T07:50:08.373Z,8.47
2018-12-25T07:53:14.397Z,6.90
2018-12-25T07:56:20.360Z,9.83
2018-12-25T07:59:26.197Z,10.00
2018-12-25T08:02:32.251Z,7.73
2018-12-25T08:05:38.237Z,6.77
2018-12-25T08:08:44.260Z,7.80
2018-12-25T08:11:50.131Z,8.73
2018-12-25T08:14:56.101Z,11.37
2018-12-25T08:18:02.291Z,12.80
2018-12-25T08:21:08.206Z,9.87
2018-12-25T08:24:14.183Z,8.87
2018-12-25T08:27:20.133Z,10.30
2018-12-25T08:30:26.251Z,11.53
2018-12-25T08:33:32.180Z,12.10
2018-12-25T08:36:41.034Z,8.33
2018-12-25T08:39:46.982Z,8.83
2018-12-25T08:42:53.107Z,11.80
2018-12-25T08:45:59.213Z,13.40
2018-12-25T08:49:05.145Z,12.33
2018-12-25T08:52:11.322Z,11.93
2018-12-25T08:55:17.312Z,14.10
2018-12-25T08:58:23.390Z,18.03
2018-12-25T09:01:29.260Z,23.93
2018-12-25T09:04:35.252Z,20.80
2018-12-25T09:07:41.151Z,20.40
2018-12-25T09:10:50.195Z,21.03
2018-12-25T09:13:56.175Z,18.00
2018-12-25T09:17:02.135Z,15.37
2018-12-25T09:20:08.170Z,11.90
2018-12-25T09:23:14.199Z,11.03
2018-12-25T09:26:20.370Z,10.67
2018-12-25T09:29:26.388Z,10.20
2018-12-25T09:32:32.402Z,20.37
2018-12-25T09:35:38.471Z,23.90
2018-12-25T09:38:44.392Z,18.80
2018-12-25T09:41:50.478Z,16.10
2018-12-25T09:44:56.633Z,15.07
2018-12-25T09:48:02.575Z,16.47
2018-12-25T09:51:08.652Z,15.90
2018-12-25T09:54:14.793Z,16.03
2018-12-25T09:57:20.865Z,19.23
2018-12-25T10:00:26.933Z,20.80
2018-12-25T10:03:32.941Z,15.37
2018-12-25T10:06:38.890Z,12.03
2018-12-25T10:09:45.238Z,14.23
2018-12-25T10:12:51.118Z,13.87
2018-12-25T10:15:57.290Z,9.73
2018-12-25T10:19:03.348Z,15.23
2018-12-25T10:22:09.272Z,22.20
2018-12-25T10:25:15.246Z,26.77
2018-12-25T10:28:21.215Z,21.33
2018-12-25T10:31:27.265Z,19.40
2018-12-25T10:34:33.298Z,13.57
2018-12-25T10:37:41.607Z,12.63
2018-12-25T10:40:47.579Z,13.00
2018-12-25T10:43:53.528Z,12.57
2018-12-25T10:46:59.447Z,11.33
2018-12-25T10:50:05.973Z,7.87
2018-12-25T10:53:12.630Z,5.87
2018-12-25T10:56:37.594Z,6.00
2018-12-25T10:59:43.473Z,4.20
2018-12-25T11:02:49.354Z,4.20
2018-12-25T11:05:55.398Z,4.23
2018-12-25T11:09:01.271Z,9.60
2018-12-25T11:12:07.280Z,5.33
2018-12-25T11:15:13.173Z,4.90
2018-12-25T11:18:19.250Z,4.87
2018-12-25T11:21:25.196Z,4.47
2018-12-25T11:24:31.097Z,4.20
2018-12-25T11:27:36.921Z,4.27
2018-12-25T11:30:42.899Z,4.83
2018-12-25T11:33:48.835Z,5.20
2018-12-25T11:36:57.534Z,4.27
2018-12-25T11:40:03.418Z,4.47
2018-12-25T11:43:09.422Z,4.00
2018-12-25T11:46:15.535Z,3.60
2018-12-25T11:49:21.426Z,4.20
2018-12-25T11:52:28.444Z,4.43
2018-12-25T11:55:34.781Z,3.73
2018-12-25T11:58:40.656Z,3.87
2018-12-25T12:01:46.503Z,4.37
2018-12-25T12:04:52.421Z,4.27
2018-12-25T12:07:58.483Z,4.17
2018-12-25T12:11:07.551Z,4.00
2018-12-25T12:14:13.440Z,4.30
2018-12-25T12:17:19.615Z,3.80
2018-12-25T12:20:25.563Z,4.60
2018-12-25T12:23:31.578Z,4.00
2018-12-25T12:26:40.499Z,4.00
2018-12-25T12:29:46.538Z,3.27
2018-12-25T12:32:52.647Z,4.33
2018-12-25T12:35:58.908Z,4.97
2018-12-25T12:39:06.820Z,3.90
2018-12-25T12:42:15.739Z,4.17
2018-12-25T12:45:21.663Z,4.00
2018-12-25T12:48:27.478Z,4.10
2018-12-25T12:51:33.405Z,3.77
2018-12-25T12:54:39.300Z,3.90
2018-12-25T12:57:45.301Z,4.47
2018-12-25T13:00:51.218Z,4.20
2018-12-25T13:03:57.107Z,4.80
2018-12-25T13:07:02.987Z,4.30
2018-12-25T13:10:09.733Z,6.10
2018-12-25T13:13:15.610Z,14.03
2018-12-25T13:16:21.610Z,14.43
2018-12-25T13:19:27.519Z,6.17
2018-12-25T13:22:33.329Z,4.43
2018-12-25T13:25:39.583Z,4.47
2018-12-25T13:28:45.446Z,5.30
2018-12-25T13:31:51.392Z,5.37
2018-12-25T13:34:57.670Z,5.07
2018-12-25T13:38:03.748Z,4.60
2018-12-25T13:41:09.638Z,4.87
2018-12-25T13:44:15.671Z,4.57
2018-12-25T13:47:21.691Z,19.70
2018-12-25T13:50:27.595Z,6.07
2018-12-25T13:53:33.528Z,20.07
2018-12-25T13:56:39.471Z,6.63
2018-12-25T13:59:45.383Z,6.47
2018-12-25T14:02:51.240Z,6.77
2018-12-25T14:05:57.080Z,5.63
2018-12-25T14:09:03.585Z,4.27
2018-12-25T14:12:09.497Z,4.80
2018-12-25T14:15:15.518Z,5.73
2018-12-25T14:18:21.390Z,5.30
2018-12-25T14:21:27.286Z,5.00
2018-12-25T14:24:33.182Z,4.63
2018-12-25T14:27:39.064Z,5.57
2018-12-25T14:30:44.982Z,6.43
2018-12-25T14:33:50.972Z,6.70
2018-12-25T14:36:56.835Z,5.80
2018-12-25T14:40:02.776Z,5.47
2018-12-25T14:43:08.684Z,5.73
2018-12-25T14:46:14.651Z,6.27
2018-12-25T14:49:20.757Z,6.60
2018-12-25T14:52:26.635Z,6.10
2018-12-25T14:55:32.488Z,6.23
2018-12-25T14:58:38.388Z,6.20
2018-12-25T15:01:44.353Z,5.87
2018-12-25T15:04:50.276Z,6.03
2018-12-25T15:07:56.140Z,6.80
2018-12-25T15:11:02.042Z,6.93
2018-12-25T15:14:07.799Z,7.10
2018-12-25T15:17:13.666Z,5.93
2018-12-25T15:20:19.589Z,6.93
2018-12-25T15:23:28.306Z,5.67
2018-12-25T15:26:33.230Z,7.13
2018-12-25T15:29:39.080Z,7.77
2018-12-25T15:32:44.974Z,6.83
2018-12-25T15:35:50.851Z,6.77
2018-12-25T15:38:56.792Z,5.87
2018-12-25T15:42:02.689Z,7.50
2018-12-25T15:45:09.751Z,6.53
2018-12-25T15:48:15.707Z,5.90
2018-12-25T15:51:21.685Z,5.80
2018-12-25T15:54:27.635Z,5.87
2018-12-25T15:57:33.574Z,6.37
2018-12-25T16:00:39.501Z,5.90
2018-12-25T16:03:45.409Z,6.57
2018-12-25T16:06:51.404Z,7.40
2018-12-25T16:09:57.309Z,6.83
2018-12-25T16:13:03.318Z,6.43
2018-12-25T16:16:09.280Z,7.07
2018-12-25T16:19:15.267Z,8.13
2018-12-25T16:22:21.133Z,7.90
2018-12-25T16:25:27.064Z,8.77
2018-12-25T16:28:33.013Z,8.03
2018-12-25T16:31:38.882Z,7.57
2018-12-25T16:34:44.877Z,8.10
2018-12-25T16:37:50.741Z,8.57
2018-12-25T16:40:56.716Z,8.73
2018-12-25T16:44:02.592Z,8.90
2018-12-25T16:47:08.620Z,8.43
2018-12-25T16:50:14.537Z,7.40
2018-12-25T16:53:20.436Z,8.60
2018-12-25T16:56:26.406Z,9.03
2018-12-25T16:59:32.513Z,8.43
2018-12-25T17:02:38.380Z,8.60
2018-12-25T17:05:44.391Z,9.07
2018-12-25T17:08:50.343Z,6.80
2018-12-25T17:11:56.314Z,6.33
2018-12-25T17:15:02.231Z,8.37
2018-12-25T17:18:09.581Z,8.63
2018-12-25T17:21:15.614Z,9.27
2018-12-25T17:24:21.542Z,9.27
2018-12-25T17:27:27.360Z,7.83
2018-12-25T17:30:33.277Z,8.93
2018-12-25T17:33:39.257Z,10.03
2018-12-25T17:36:45.131Z,8.37
2018-12-25T17:39:51.085Z,8.97
2018-12-25T17:42:56.838Z,8.50
2018-12-25T17:46:02.724Z,8.47
2018-12-25T17:49:08.547Z,9.27
2018-12-25T17:52:14.523Z,8.83
2018-12-25T17:55:20.426Z,18.23
2018-12-25T17:58:26.380Z,18.90
2018-12-25T18:01:32.307Z,14.30
2018-12-25T18:04:38.329Z,12.00
2018-12-25T18:07:44.255Z,11.57
2018-12-25T18:10:50.235Z,11.93
2018-12-25T18:13:56.161Z,13.37
2018-12-25T18:17:02.069Z,11.40
2018-12-25T18:20:08.312Z,13.47
2018-12-25T18:23:14.283Z,12.20
2018-12-25T18:26:20.257Z,10.13
2018-12-25T18:29:26.136Z,9.83
2018-12-25T18:32:32.015Z,9.13
2018-12-25T18:35:38.086Z,8.53
2018-12-25T18:38:44.206Z,7.03
2018-12-25T18:41:50.054Z,5.60
2018-12-25T18:44:56.036Z,6.03
2018-12-25T18:48:01.938Z,6.83
2018-12-25T18:51:08.002Z,6.90
2018-12-25T18:54:15.611Z,6.03
2018-12-25T18:57:22.074Z,6.17
2018-12-25T19:00:28.230Z,5.53
2018-12-25T19:03:34.118Z,5.63
2018-12-25T19:06:40.054Z,6.03
2018-12-25T19:09:46.027Z,6.43
2018-12-25T19:12:52.385Z,6.30
2018-12-25T19:16:03.462Z,6.10
2018-12-25T19:19:11.424Z,7.07
2018-12-25T19:22:17.481Z,8.40
2018-12-25T19:25:23.505Z,11.73
2018-12-25T19:28:29.485Z,7.90
2018-12-25T19:31:38.447Z,5.53
2018-12-25T19:34:44.379Z,6.10
2018-12-25T19:37:50.340Z,6.33
2018-12-25T19:40:56.404Z,8.67
2018-12-25T19:44:02.772Z,10.20
2018-12-25T19:47:08.747Z,12.80
2018-12-25T19:50:14.662Z,15.23
2018-12-25T19:53:20.694Z,18.50
2018-12-25T19:56:26.635Z,22.23
2018-12-25T19:59:32.556Z,20.13
2018-12-25T20:02:39.040Z,20.90
2018-12-25T20:06:44.113Z,18.07
2018-12-25T20:11:06.361Z,16.73
2018-12-25T20:15:15.183Z,16.33
2018-12-25T20:19:08.038Z,17.27
2018-12-25T20:22:58.526Z,15.73
2018-12-25T20:26:48.387Z,15.80
2018-12-25T20:31:24.735Z,14.77
2018-12-25T20:35:32.781Z,13.57
2018-12-25T20:39:52.882Z,11.40
2018-12-25T20:44:21.108Z,12.27
2018-12-25T20:48:22.722Z,10.00
2018-12-25T20:52:39.323Z,9.50
2018-12-25T20:56:39.435Z,7.33
2018-12-25T21:00:38.932Z,6.73
2018-12-25T21:04:32.603Z,7.17
2018-12-25T21:08:39.069Z,7.17
2018-12-25T21:12:49.605Z,8.97
2018-12-25T21:17:06.141Z,9.23
2018-12-25T21:21:03.785Z,7.17
2018-12-25T21:25:09.680Z,7.53
2018-12-25T21:28:08.013Z,7.97
2018-12-25T21:31:14.266Z,12.03
2018-12-25T21:34:20.507Z,12.80
2018-12-25T21:37:26.485Z,16.33
2018-12-25T21:40:32.792Z,15.37
2018-12-25T21:43:38.803Z,13.60
2018-12-25T21:46:44.776Z,12.70
2018-12-25T21:49:52.487Z,13.00
2018-12-25T21:52:59.073Z,13.27
2018-12-25T21:56:05.403Z,12.63
2018-12-25T21:59:12.073Z,11.57
2018-12-25T22:02:18.483Z,10.67
2018-12-25T22:05:24.713Z,11.17
2018-12-25T22:08:30.599Z,11.00
2018-12-25T22:11:36.899Z,10.87
2018-12-25T22:14:42.871Z,9.67
2018-12-25T22:17:48.853Z,8.93
2018-12-25T22:20:55.105Z,9.63
2018-12-25T22:24:01.053Z,9.70
2018-12-25T22:27:07.193Z,8.67
2018-12-25T22:30:13.380Z,8.73
2018-12-25T22:33:19.445Z,8.67
2018-12-25T22:36:25.461Z,11.60
2018-12-25T22:39:31.283Z,11.23
2018-12-25T22:42:37.132Z,11.60
2018-12-25T22:45:43.006Z,12.27
2018-12-25T22:48:49.181Z,16.07
2018-12-25T22:51:55.162Z,14.43
2018-12-25T22:55:01.117Z,14.37
2018-12-25T22:58:07.026Z,13.57
2018-12-25T23:01:12.963Z,15.03
2018-12-25T23:04:18.893Z,14.67
2018-12-25T23:07:24.903Z,13.93
2018-12-25T23:10:30.846Z,12.17
2018-12-25T23:13:36.736Z,11.53
2018-12-25T23:16:42.798Z,11.77
2018-12-25T23:19:48.716Z,11.67
2018-12-25T23:22:54.697Z,12.07
2018-12-25T23:26:00.730Z,11.60
2018-12-25T23:29:07.047Z,10.97
2018-12-25T23:32:13.119Z,12.07
2018-12-25T23:35:18.974Z,11.83
2018-12-25T23:38:24.827Z,10.37
2018-12-25T23:41:30.906Z,10.83
2018-12-25T23:44:36.877Z,10.33
2018-12-25T23:47:42.785Z,11.03
2018-12-25T23:50:48.805Z,11.70
2018-12-25T23:53:54.744Z,12.63
2018-12-25T23:57:00.618Z,13.10
